Terminal Aerodrome Forecast
Issued by NWS

Home | Current Version | Previous Version | Text Only | Print | Product List | Glossary On
Versions: 1 2 3 4 5 6 7 8 9 10 11 12 13 14 15 16 17 18 19
000
FTUS43 KILX 211727
TAFDEC
TAF
KDEC 211727Z 2118/2218 18008KT P6SM SCT030 BKN100
     FM211900 19008KT P6SM VCTS OVC030CB
     FM212300 21007KT P6SM BKN070
     FM220400 VRB04KT P6SM SCT200
     FM221000 VRB03KT 4SM BR BKN015
     FM221300 31005KT P6SM SCT025=

USA.gov is the U.S. government's official web portal to all federal, state and local government web resources and services.